Time;durP1;ratioP1;P1;durP2;ratioP2;P2;SDS_P1;SDS_P2;PMS_P1;PMS_P2;Temp;Humidity;BMP_temperature;BMP_pressure;BME280_temperature;BME280_humidity;BME280_pressure;Samples;Min_cycle;Max_cycle;Signal;HPM_P1;HPM_P2
2021/03/17 00:02:10;;;;;;;11.43;10.38;;;1.50;79.10;;;;;;5131886;28;20057;-68
2021/03/17 00:05:00;;;;;;;12.05;10.43;;;1.50;79.10;;;;;;5135257;28;20070;-68
2021/03/17 00:07:50;;;;;;;12.32;11.23;;;1.50;79.40;;;;;;5134050;28;20043;-68
2021/03/17 00:10:42;;;;;;;12.18;10.98;;;1.50;79.40;;;;;;5134286;28;20493;-68
2021/03/17 00:13:33;;;;;;;11.48;10.30;;;1.40;79.10;;;;;;5134206;28;20046;-68
2021/03/17 00:16:23;;;;;;;11.80;10.60;;;1.40;79.30;;;;;;5134172;28;20051;-68
2021/03/17 00:19:13;;;;;;;12.10;10.88;;;1.40;79.10;;;;;;5134618;28;20532;-69
2021/03/17 00:22:03;;;;;;;11.80;10.75;;;1.50;79.10;;;;;;5133856;28;20535;-68
2021/03/17 00:24:54;;;;;;;12.07;10.93;;;1.40;79.00;;;;;;5135281;28;20066;-68
2021/03/17 00:27:44;;;;;;;12.68;11.38;;;1.40;79.20;;;;;;5133154;28;20101;-69
2021/03/17 00:30:36;;;;;;;11.68;10.68;;;1.40;79.10;;;;;;5133462;28;20070;-68
2021/03/17 00:33:26;;;;;;;11.88;10.77;;;1.40;79.30;;;;;;5134346;28;20050;-68
2021/03/17 00:36:16;;;;;;;11.40;10.32;;;1.40;79.40;;;;;;5133640;28;20051;-69
2021/03/17 00:39:06;;;;;;;11.57;10.48;;;1.30;79.30;;;;;;5135068;28;20181;-68
2021/03/17 00:41:56;;;;;;;10.63;9.73;;;1.30;79.50;;;;;;5134275;28;20054;-68
2021/03/17 00:44:46;;;;;;;12.10;10.88;;;1.30;79.30;;;;;;5135325;28;20209;-69
2021/03/17 00:47:38;;;;;;;12.23;11.13;;;1.30;79.50;;;;;;5134277;28;20061;-68
2021/03/17 00:50:12;;;;;;;11.13;10.13;;;1.30;79.80;;;;;;5131474;28;20043;-69
2021/03/17 00:52:44;;;;;;;11.65;10.48;;;1.30;79.60;;;;;;5136921;28;20038;-69
2021/03/17 00:55:16;;;;;;;11.68;10.52;;;1.30;80.00;;;;;;5138345;28;20050;-68
2021/03/17 00:58:10;;;;;;;11.60;10.50;;;1.30;79.60;;;;;;5132168;28;20055;-69
2021/03/17 01:00:42;;;;;;;11.93;10.65;;;1.40;79.60;;;;;;5118928;28;20106;-68
2021/03/17 01:03:14;;;;;;;11.00;9.90;;;1.40;79.50;;;;;;5137977;28;20050;-68
2021/03/17 01:05:46;;;;;;;11.57;10.45;;;1.40;79.60;;;;;;5136161;28;20058;-70
2021/03/17 01:08:18;;;;;;;11.80;10.45;;;1.40;79.40;;;;;;5135911;28;20046;-68
2021/03/17 01:10:50;;;;;;;11.65;10.63;;;1.50;79.30;;;;;;5133412;28;20051;-69
2021/03/17 01:13:22;;;;;;;11.15;10.00;;;1.50;79.30;;;;;;5137729;28;20538;-68
2021/03/17 01:15:53;;;;;;;11.82;10.73;;;1.50;79.20;;;;;;5136294;28;20043;-68
2021/03/17 01:18:25;;;;;;;11.60;10.50;;;1.50;79.70;;;;;;5137951;28;20050;-68
2021/03/17 01:20:56;;;;;;;11.23;10.13;;;1.40;79.70;;;;;;5136611;28;20130;-68
2021/03/17 01:23:28;;;;;;;11.85;10.48;;;1.40;79.80;;;;;;5138089;28;20054;-68
2021/03/17 01:25:59;;;;;;;11.70;10.60;;;1.50;79.60;;;;;;5137376;28;20507;-68
2021/03/17 01:28:31;;;;;;;11.45;10.45;;;1.40;79.80;;;;;;5138175;28;20053;-69
2021/03/17 01:31:02;;;;;;;11.75;10.65;;;1.40;80.10;;;;;;5136487;28;20055;-67
2021/03/17 01:33:34;;;;;;;11.45;10.38;;;1.40;79.80;;;;;;5136410;28;20519;-68
2021/03/17 01:36:06;;;;;;;11.77;10.77;;;1.40;80.00;;;;;;5136067;28;20078;-69
2021/03/17 01:38:37;;;;;;;10.93;9.88;;;1.40;80.20;;;;;;5134823;28;20109;-68
2021/03/17 01:41:08;;;;;;;11.18;10.18;;;1.30;80.30;;;;;;5136469;28;20070;-69
2021/03/17 01:43:40;;;;;;;10.50;9.60;;;1.40;80.10;;;;;;5136976;28;20050;-70
2021/03/17 01:46:11;;;;;;;11.20;10.10;;;1.40;79.60;;;;;;5136587;28;20062;-69
2021/03/17 01:48:43;;;;;;;11.50;10.50;;;1.40;79.70;;;;;;5135684;28;20082;-69
2021/03/17 01:51:15;;;;;;;11.70;10.60;;;1.40;79.60;;;;;;5137135;28;20050;-69
2021/03/17 01:53:46;;;;;;;12.02;10.85;;;1.40;79.30;;;;;;5136580;28;20488;-68
2021/03/17 01:56:18;;;;;;;11.70;10.60;;;1.40;79.50;;;;;;5137171;28;20043;-69
2021/03/17 01:58:50;;;;;;;11.02;10.05;;;1.40;79.50;;;;;;5134564;28;20532;-70
2021/03/17 02:01:21;;;;;;;11.18;10.18;;;1.40;79.70;;;;;;5135070;28;20500;-67
2021/03/17 02:03:53;;;;;;;11.63;10.52;;;1.40;79.50;;;;;;5137038;28;20432;-69
2021/03/17 02:06:25;;;;;;;11.80;10.73;;;1.30;79.80;;;;;;5135592;28;20137;-69
2021/03/17 02:08:57;;;;;;;11.40;10.40;;;1.30;79.60;;;;;;5136605;28;20043;-68
2021/03/17 02:11:28;;;;;;;11.90;10.70;;;1.40;79.80;;;;;;5134650;28;20050;-68
2021/03/17 02:14:25;;;;;;;12.05;10.95;;;1.40;80.10;;;;;;5137298;28;20043;-68
2021/03/17 02:17:04;;;;;;;12.02;10.93;;;1.30;80.10;;;;;;5136807;28;20035;-68
2021/03/17 02:20:13;;;;;;;12.18;11.07;;;1.30;80.00;;;;;;5135299;28;20047;-68
2021/03/17 02:23:01;;;;;;;12.07;11.05;;;1.40;79.60;;;;;;5135997;28;20063;-69
2021/03/17 02:26:07;;;;;;;12.50;11.20;;;1.40;79.30;;;;;;5135814;28;20047;-68
2021/03/17 02:28:38;;;;;;;12.68;11.40;;;1.40;79.40;;;;;;5135810;28;20393;-68
2021/03/17 02:31:37;;;;;;;12.80;11.60;;;1.40;79.50;;;;;;5133874;28;20055;-68
2021/03/17 02:34:12;;;;;;;12.35;11.20;;;1.40;79.40;;;;;;5135809;28;20418;-68
2021/03/17 02:36:52;;;;;;;11.65;10.63;;;1.30;79.90;;;;;;5133624;28;20109;-68
2021/03/17 02:39:39;;;;;;;12.23;11.02;;;1.30;80.10;;;;;;5135327;28;20450;-68
2021/03/17 02:42:42;;;;;;;11.98;10.85;;;1.30;79.60;;;;;;5134554;28;20125;-68
2021/03/17 02:45:25;;;;;;;11.40;10.38;;;1.20;80.10;;;;;;5135750;28;20110;-70
2021/03/17 02:48:08;;;;;;;12.27;11.10;;;1.20;80.00;;;;;;5136719;28;20496;-69
2021/03/17 02:50:43;;;;;;;12.00;10.90;;;1.20;79.90;;;;;;5134386;28;20134;-69
2021/03/17 02:53:18;;;;;;;11.75;10.57;;;1.30;80.10;;;;;;5136579;28;20515;-69
2021/03/17 02:55:58;;;;;;;11.30;10.20;;;1.30;79.80;;;;;;5133811;28;20117;-67
2021/03/17 02:58:33;;;;;;;11.68;10.68;;;1.30;79.40;;;;;;5134476;28;20521;-68
2021/03/17 03:01:07;;;;;;;11.45;10.45;;;1.30;79.30;;;;;;5135848;28;20042;-68
2021/03/17 03:03:40;;;;;;;11.27;10.23;;;1.30;79.40;;;;;;5135878;28;20042;-69
2021/03/17 03:06:12;;;;;;;11.00;10.00;;;1.40;79.70;;;;;;5135174;28;20384;-67
2021/03/17 03:08:44;;;;;;;10.52;9.63;;;1.30;79.80;;;;;;5135587;28;20117;-68
2021/03/17 03:11:17;;;;;;;11.10;10.10;;;1.30;80.00;;;;;;5135553;28;20046;-69
2021/03/17 03:13:51;;;;;;;11.65;10.55;;;1.20;79.90;;;;;;5134762;28;20038;-68
2021/03/17 03:16:23;;;;;;;10.90;10.00;;;1.20;80.00;;;;;;5134482;28;20177;-68
2021/03/17 03:18:56;;;;;;;10.93;9.93;;;1.20;80.20;;;;;;5134858;28;20111;-68
2021/03/17 03:21:29;;;;;;;10.45;9.55;;;1.20;80.20;;;;;;5135424;28;20599;-68
2021/03/17 03:24:01;;;;;;;10.52;9.63;;;1.20;80.30;;;;;;5133754;28;20452;-68
2021/03/17 03:26:34;;;;;;;10.40;9.40;;;1.20;80.20;;;;;;5134721;28;20046;-69
2021/03/17 03:29:06;;;;;;;10.63;9.73;;;1.30;80.20;;;;;;5134456;28;20828;-69
2021/03/17 03:31:38;;;;;;;10.52;9.52;;;1.30;80.20;;;;;;5133257;28;20074;-68
2021/03/17 03:34:10;;;;;;;10.77;9.85;;;1.30;80.50;;;;;;5135295;28;20074;-69
2021/03/17 03:36:43;;;;;;;11.18;10.07;;;1.20;80.70;;;;;;5132390;28;20082;-68
2021/03/17 03:39:15;;;;;;;10.18;9.38;;;1.10;80.80;;;;;;5134519;28;20464;-69
2021/03/17 03:41:47;;;;;;;10.65;9.65;;;1.10;80.80;;;;;;5132923;28;20113;-67
2021/03/17 03:44:18;;;;;;;10.65;9.75;;;1.10;80.40;;;;;;5134305;28;20039;-67
2021/03/17 03:46:51;;;;;;;10.75;9.73;;;1.10;80.40;;;;;;5133085;28;20046;-68
2021/03/17 03:49:23;;;;;;;10.77;9.77;;;1.20;80.10;;;;;;5135104;28;20043;-68
2021/03/17 03:52:05;;;;;;;10.98;9.98;;;1.20;80.00;;;;;;5134267;28;20094;-68
2021/03/17 03:54:48;;;;;;;11.02;10.02;;;1.20;79.90;;;;;;5133858;28;20039;-69
2021/03/17 03:57:35;;;;;;;10.77;9.77;;;1.20;80.00;;;;;;5134008;28;20573;-67
2021/03/17 04:00:09;;;;;;;10.90;9.90;;;1.10;80.20;;;;;;5134705;28;20117;-69
2021/03/17 04:02:49;;;;;;;11.80;10.80;;;1.10;80.50;;;;;;5135223;28;20138;-68
2021/03/17 04:05:26;;;;;;;;;;;1.10;80.40;;;;;;5134995;28;20055;-68
2021/03/17 04:08:04;;;;;;;11.15;10.23;;;1.20;80.40;;;;;;5135338;28;20624;-68
2021/03/17 04:10:38;;;;;;;10.70;9.80;;;1.10;80.60;;;;;;5132840;28;20105;-69
2021/03/17 04:13:11;;;;;;;10.73;9.82;;;1.10;80.70;;;;;;5134314;28;20509;-68
2021/03/17 04:15:43;;;;;;;10.88;9.98;;;1.10;81.30;;;;;;5132667;28;20043;-68
2021/03/17 04:18:15;;;;;;;10.60;9.70;;;1.20;80.40;;;;;;5135179;28;20047;-69
2021/03/17 04:20:54;;;;;;;10.70;9.80;;;1.20;80.20;;;;;;5132911;28;20074;-68
2021/03/17 04:23:26;;;;;;;10.80;9.82;;;1.20;80.00;;;;;;5133825;28;20043;-70
2021/03/17 04:25:59;;;;;;;11.30;10.20;;;1.20;79.90;;;;;;5135338;28;20050;-68
2021/03/17 04:28:34;;;;;;;10.40;9.50;;;1.20;79.90;;;;;;5137787;28;20046;-68
2021/03/17 04:31:06;;;;;;;11.05;10.15;;;1.20;80.10;;;;;;5137384;28;20054;-66
2021/03/17 04:33:38;;;;;;;11.68;10.57;;;1.30;80.00;;;;;;5138988;28;20640;-67
2021/03/17 04:36:14;;;;;;;11.15;10.02;;;1.20;79.80;;;;;;5137994;28;20165;-65
2021/03/17 04:38:46;;;;;;;11.30;10.40;;;1.20;80.00;;;;;;5137329;28;20045;-66
2021/03/17 04:41:20;;;;;;;11.63;10.50;;;1.20;80.10;;;;;;5137967;28;20118;-65
2021/03/17 04:43:52;;;;;;;11.35;10.38;;;1.20;80.00;;;;;;5138426;28;20117;-66
2021/03/17 04:46:24;;;;;;;11.55;10.55;;;1.20;79.90;;;;;;5138127;28;20042;-65
2021/03/17 04:48:56;;;;;;;11.35;10.35;;;1.20;79.60;;;;;;5137666;28;20058;-65
2021/03/17 04:51:28;;;;;;;12.02;11.02;;;1.20;79.50;;;;;;5138294;28;20452;-65
2021/03/17 04:54:00;;;;;;;11.30;10.30;;;1.30;79.40;;;;;;5137637;28;20170;-65
2021/03/17 04:56:32;;;;;;;11.40;10.30;;;1.30;79.60;;;;;;5137346;28;20062;-66
2021/03/17 04:59:06;;;;;;;11.52;10.52;;;1.30;79.60;;;;;;5136564;28;20540;-66
2021/03/17 05:01:42;;;;;;;11.00;10.10;;;1.30;80.10;;;;;;5138291;28;20046;-65
2021/03/17 05:04:15;;;;;;;10.98;9.98;;;1.20;80.80;;;;;;5137210;28;20051;-65
2021/03/17 05:06:49;;;;;;;11.40;10.35;;;1.30;80.40;;;;;;5137206;28;20051;-64
2021/03/17 05:09:22;;;;;;;11.23;10.25;;;1.20;80.00;;;;;;5138369;28;20773;-66
2021/03/17 05:11:54;;;;;;;11.73;10.70;;;1.30;80.20;;;;;;5136265;28;20059;-65
2021/03/17 05:14:26;;;;;;;11.35;10.35;;;1.30;79.70;;;;;;5137694;28;20035;-65
2021/03/17 05:17:00;;;;;;;10.82;9.82;;;1.30;79.50;;;;;;5136280;28;20046;-67
2021/03/17 05:19:32;;;;;;;13.95;12.65;;;1.30;79.30;;;;;;5137836;28;20127;-65
2021/03/17 05:22:06;;;;;;;12.43;11.32;;;1.30;79.90;;;;;;5137027;28;20062;-65
2021/03/17 05:24:38;;;;;;;12.07;10.95;;;1.30;79.60;;;;;;5136601;28;20042;-65
2021/03/17 05:27:15;;;;;;;11.32;10.23;;;1.30;79.90;;;;;;5137665;28;20062;-65
2021/03/17 05:29:48;;;;;;;11.95;10.95;;;1.30;79.90;;;;;;5135738;28;20042;-66
2021/03/17 05:32:21;;;;;;;12.10;11.02;;;1.30;80.10;;;;;;5136317;28;20586;-65
2021/03/17 05:34:59;;;;;;;12.20;11.00;;;1.30;80.10;;;;;;5137231;28;20539;-66
2021/03/17 05:37:31;;;;;;;11.50;10.40;;;1.20;80.20;;;;;;5136033;28;20137;-65
2021/03/17 05:40:06;;;;;;;10.88;9.88;;;1.20;80.30;;;;;;5136114;28;20039;-65
2021/03/17 05:42:39;;;;;;;13.10;11.80;;;1.20;80.30;;;;;;5137389;28;20086;-65
2021/03/17 05:45:12;;;;;;;13.23;12.00;;;1.20;80.90;;;;;;5136028;28;20047;-67
2021/03/17 05:47:49;;;;;;;13.30;12.07;;;1.10;81.60;;;;;;5137691;28;20097;-64
2021/03/17 05:50:22;;;;;;;12.63;11.50;;;1.00;81.60;;;;;;5135316;28;20066;-65
2021/03/17 05:52:55;;;;;;;12.98;11.85;;;1.00;81.30;;;;;;5137704;28;20035;-64
2021/03/17 05:55:27;;;;;;;12.93;11.35;;;1.00;81.30;;;;;;5136112;28;20101;-65
2021/03/17 05:57:59;;;;;;;12.02;10.90;;;0.90;81.60;;;;;;5137404;28;20054;-66
2021/03/17 06:00:30;;;;;;;12.15;10.85;;;0.90;81.70;;;;;;5136126;28;20452;-67
2021/03/17 06:03:04;;;;;;;12.20;11.05;;;1.00;81.40;;;;;;5137238;28;20546;-65
2021/03/17 06:05:36;;;;;;;11.13;10.13;;;1.00;80.60;;;;;;5130354;28;20050;-65
2021/03/17 06:08:12;;;;;;;12.10;11.02;;;1.10;80.20;;;;;;5132556;28;20097;-65
2021/03/17 06:10:45;;;;;;;11.27;10.27;;;1.10;79.60;;;;;;5131446;28;20040;-65
2021/03/17 06:13:21;;;;;;;13.57;11.48;;;1.10;79.40;;;;;;5132204;28;20051;-65
2021/03/17 06:15:58;;;;;;;11.20;10.20;;;1.10;79.90;;;;;;5131509;28;20043;-65
2021/03/17 06:18:42;;;;;;;12.20;11.02;;;1.00;79.40;;;;;;5133625;28;20038;-64
2021/03/17 06:21:18;;;;;;;11.23;10.23;;;1.10;79.40;;;;;;5130972;28;20034;-65
2021/03/17 06:23:51;;;;;;;11.77;10.68;;;1.10;79.60;;;;;;5134154;28;20046;-64
2021/03/17 06:26:24;;;;;;;13.15;11.75;;;1.20;80.10;;;;;;5132819;28;20062;-64
2021/03/17 06:28:55;;;;;;;16.13;14.52;;;1.20;80.20;;;;;;5133525;28;20051;-65
2021/03/17 06:31:27;;;;;;;17.05;15.25;;;1.30;80.20;;;;;;5132613;28;20055;-64
2021/03/17 06:33:59;;;;;;;13.77;12.48;;;1.40;80.20;;;;;;5132659;28;20043;-64
2021/03/17 06:36:30;;;;;;;12.88;11.57;;;1.50;80.10;;;;;;5133579;28;20074;-65
2021/03/17 06:39:10;;;;;;;14.73;12.68;;;1.60;79.70;;;;;;5131068;28;20076;-66
2021/03/17 06:41:45;;;;;;;11.93;10.82;;;1.60;80.20;;;;;;5131976;28;20043;-68
2021/03/17 06:44:20;;;;;;;12.68;11.40;;;1.70;79.50;;;;;;5136203;28;20494;-65
2021/03/17 06:47:22;;;;;;;12.85;11.48;;;1.80;79.50;;;;;;5127664;28;20047;-68
2021/03/17 06:49:54;;;;;;;12.80;11.60;;;1.80;79.30;;;;;;5132241;28;20047;-64
2021/03/17 06:52:45;;;;;;;12.88;11.68;;;1.90;79.40;;;;;;5132538;28;20447;-65
2021/03/17 06:55:22;;;;;;;12.65;11.45;;;2.00;79.40;;;;;;5134789;28;20046;-65
2021/03/17 06:57:54;;;;;;;12.35;11.15;;;2.00;78.70;;;;;;5133875;28;20043;-65
2021/03/17 07:00:25;;;;;;;12.98;11.77;;;2.10;79.10;;;;;;5135136;28;20066;-67
2021/03/17 07:03:13;;;;;;;13.57;12.23;;;2.20;79.20;;;;;;5135481;28;20047;-66
2021/03/17 07:05:46;;;;;;;13.30;12.18;;;2.30;79.30;;;;;;5135598;28;20154;-65
2021/03/17 07:08:29;;;;;;;13.38;11.98;;;2.40;78.90;;;;;;5135277;28;20046;-66
2021/03/17 07:11:02;;;;;;;13.80;12.50;;;2.50;78.10;;;;;;5135149;28;20307;-66
2021/03/17 07:13:34;;;;;;;13.07;11.88;;;2.50;78.70;;;;;;5134462;28;20043;-65
2021/03/17 07:16:06;;;;;;;13.48;12.18;;;2.60;78.20;;;;;;5134529;28;20039;-67
2021/03/17 07:18:39;;;;;;;13.98;12.77;;;2.70;78.30;;;;;;5128319;28;20505;-66
2021/03/17 07:21:10;;;;;;;13.30;12.00;;;2.80;77.50;;;;;;5129891;28;20039;-66
2021/03/17 07:23:44;;;;;;;12.52;11.43;;;2.80;77.40;;;;;;5132857;28;20650;-66
2021/03/17 07:26:25;;;;;;;12.20;11.13;;;2.80;76.80;;;;;;5134372;28;20125;-68
2021/03/17 07:29:11;;;;;;;12.00;11.00;;;2.90;77.00;;;;;;5134991;28;20105;-66
2021/03/17 07:31:52;;;;;;;12.48;11.27;;;2.90;77.10;;;;;;5133117;28;20428;-67
2021/03/17 07:34:25;;;;;;;12.77;11.68;;;2.90;76.10;;;;;;5134616;28;20423;-66
2021/03/17 07:37:05;;;;;;;12.23;11.13;;;3.00;75.50;;;;;;5134027;28;20074;-66
2021/03/17 07:39:41;;;;;;;12.75;11.65;;;3.00;76.30;;;;;;5134462;28;20043;-67
2021/03/17 07:42:13;;;;;;;12.40;11.30;;;3.00;76.00;;;;;;5135452;28;20074;-65
2021/03/17 07:44:45;;;;;;;12.30;11.20;;;3.00;74.90;;;;;;5135065;28;20042;-66
2021/03/17 07:47:18;;;;;;;12.50;11.30;;;2.90;75.90;;;;;;5134603;28;20097;-66
2021/03/17 07:49:53;;;;;;;13.20;12.00;;;2.90;74.70;;;;;;5136382;28;20042;-66
2021/03/17 07:52:29;;;;;;;12.82;11.73;;;2.90;75.80;;;;;;5135140;28;20043;-66
2021/03/17 07:55:06;;;;;;;12.27;11.25;;;2.90;75.40;;;;;;5134563;28;20067;-66
2021/03/17 07:57:39;;;;;;;12.15;11.05;;;2.90;75.80;;;;;;5135476;28;20121;-66
2021/03/17 08:00:12;;;;;;;12.13;11.02;;;2.90;75.50;;;;;;5134073;28;20054;-67
2021/03/17 08:02:47;;;;;;;11.82;10.82;;;3.00;75.80;;;;;;5135577;28;20097;-66
2021/03/17 08:05:19;;;;;;;13.35;11.85;;;3.10;75.40;;;;;;5132973;28;20122;-66
2021/03/17 08:07:52;;;;;;;12.45;11.25;;;3.30;75.80;;;;;;5135258;28;20050;-67
2021/03/17 08:10:23;;;;;;;12.40;11.30;;;3.40;75.70;;;;;;5134123;28;20058;-66
2021/03/17 08:12:56;;;;;;;12.73;11.63;;;3.50;75.40;;;;;;5133627;28;20042;-66
2021/03/17 08:15:28;;;;;;;12.80;11.70;;;3.60;74.80;;;;;;5135132;28;20082;-66
2021/03/17 08:17:59;;;;;;;12.98;11.77;;;3.60;74.40;;;;;;5133442;28;20070;-67
2021/03/17 08:20:31;;;;;;;12.23;11.13;;;3.60;73.70;;;;;;5132666;28;20049;-66
2021/03/17 08:23:05;;;;;;;13.02;11.93;;;3.50;73.60;;;;;;5135474;28;20066;-66
2021/03/17 08:25:42;;;;;;;12.48;11.38;;;3.50;74.40;;;;;;5134385;28;20046;-65
2021/03/17 08:28:23;;;;;;;12.45;11.35;;;3.40;73.80;;;;;;5134536;28;20043;-66
2021/03/17 08:30:56;;;;;;;;;;;3.40;74.90;;;;;;5133829;28;20055;-66
2021/03/17 08:33:34;;;;;;;12.68;11.57;;;3.50;74.70;;;;;;5135362;28;20031;-67
2021/03/17 08:36:07;;;;;;;12.57;11.38;;;3.70;75.80;;;;;;5132871;28;20532;-66
2021/03/17 08:39:07;;;;;;;13.15;11.85;;;3.90;75.10;;;;;;5133979;28;20043;-66
2021/03/17 08:41:39;;;;;;;;;;;4.20;73.70;;;;;;5125625;28;20811;-66
2021/03/17 08:44:12;;;;;;;12.95;11.77;;;4.40;73.30;;;;;;5135351;28;19926;-67
2021/03/17 08:46:45;;;;;;;13.73;12.48;;;4.80;73.20;;;;;;5133104;28;20061;-68
2021/03/17 08:49:35;;;;;;;13.27;12.07;;;5.00;70.70;;;;;;5118418;28;20055;-68
2021/03/17 08:52:08;;;;;;;13.80;12.60;;;5.20;68.10;;;;;;5133692;28;20067;-67
2021/03/17 08:54:44;;;;;;;13.52;12.27;;;5.40;69.10;;;;;;5134288;28;20126;-67
2021/03/17 08:57:17;;;;;;;12.98;11.85;;;5.50;68.40;;;;;;5125009;28;20050;-67
2021/03/17 09:00:00;;;;;;;12.85;11.68;;;5.70;66.00;;;;;;5135476;28;20047;-66
2021/03/17 09:02:31;;;;;;;13.18;12.02;;;5.80;67.60;;;;;;5133037;28;20058;-67
2021/03/17 09:05:16;;;;;;;13.23;12.07;;;5.80;67.20;;;;;;5134389;28;20613;-67
2021/03/17 09:08:20;;;;;;;13.73;12.38;;;5.70;66.90;;;;;;5134705;28;20146;-67
2021/03/17 09:10:51;;;;;;;13.48;12.27;;;5.60;65.50;;;;;;5112162;28;20054;-70
2021/03/17 09:13:49;;;;;;;13.55;12.35;;;5.60;67.10;;;;;;5137403;28;20421;-68
2021/03/17 09:16:21;;;;;;;13.57;12.38;;;5.50;66.70;;;;;;5137109;28;20043;-67
2021/03/17 09:19:04;;;;;;;13.65;12.40;;;5.50;67.20;;;;;;5137841;28;20058;-67
2021/03/17 09:21:38;;;;;;;13.77;12.57;;;5.50;67.10;;;;;;5137578;28;20070;-68
2021/03/17 09:24:34;;;;;;;15.25;13.85;;;5.50;67.00;;;;;;5136491;28;20046;-68
2021/03/17 09:27:08;;;;;;;17.35;14.35;;;5.40;67.30;;;;;;5136981;28;20046;-67
2021/03/17 09:29:39;;;;;;;19.23;17.25;;;5.40;64.70;;;;;;5135845;28;20050;-67
2021/03/17 09:32:11;;;;;;;20.90;18.70;;;5.40;64.10;;;;;;5135962;28;20500;-67
2021/03/17 09:34:43;;;;;;;18.48;16.30;;;5.30;62.00;;;;;;5136680;28;20210;-67
2021/03/17 09:37:14;;;;;;;16.20;14.55;;;5.30;64.20;;;;;;5137493;28;20700;-67
2021/03/17 09:39:47;;;;;;;20.65;18.60;;;5.40;64.10;;;;;;5136256;28;20035;-66
2021/03/17 09:42:19;;;;;;;22.52;20.13;;;5.60;61.20;;;;;;5136975;28;20037;-67
2021/03/17 09:44:58;;;;;;;19.20;17.10;;;5.70;63.60;;;;;;5138156;28;20129;-67
2021/03/17 09:47:30;;;;;;;27.45;22.45;;;5.80;61.80;;;;;;5137135;28;20117;-68
2021/03/17 09:50:03;;;;;;;21.27;19.05;;;5.90;61.40;;;;;;5138265;28;20433;-69
2021/03/17 09:52:34;;;;;;;18.60;16.73;;;6.00;61.40;;;;;;5136785;28;20148;-68
2021/03/17 09:55:06;;;;;;;19.27;17.38;;;6.10;60.60;;;;;;5135726;28;20047;-67
2021/03/17 09:57:38;;;;;;;21.98;19.83;;;6.20;61.00;;;;;;5136425;28;20039;-69
2021/03/17 10:00:10;;;;;;;19.23;17.33;;;6.40;60.70;;;;;;5136120;28;20042;-67
2021/03/17 10:02:46;;;;;;;16.20;14.63;;;6.60;61.10;;;;;;5137776;28;20055;-68
2021/03/17 10:05:17;;;;;;;15.75;14.20;;;6.70;60.80;;;;;;5135130;28;20038;-68
2021/03/17 10:07:49;;;;;;;15.85;14.35;;;6.80;59.50;;;;;;5137611;28;20046;-68
2021/03/17 10:10:21;;;;;;;15.52;13.88;;;6.90;58.70;;;;;;5136069;28;20046;-68
2021/03/17 10:12:53;;;;;;;14.88;13.38;;;6.80;59.60;;;;;;5137354;28;20094;-68
2021/03/17 10:15:24;;;;;;;16.05;13.68;;;6.80;59.00;;;;;;5136819;28;20054;-67
2021/03/17 10:17:57;;;;;;;15.90;14.50;;;6.90;59.60;;;;;;5136726;28;20412;-67
2021/03/17 10:20:29;;;;;;;16.15;14.45;;;7.10;58.50;;;;;;5136923;28;20488;-68
2021/03/17 10:23:01;;;;;;;15.88;14.45;;;7.20;57.90;;;;;;5134190;28;20496;-68
2021/03/17 10:25:33;;;;;;;15.55;13.98;;;7.40;59.30;;;;;;5134624;28;20047;-67
2021/03/17 10:28:08;;;;;;;15.82;14.35;;;7.60;58.80;;;;;;5135404;28;20130;-67
2021/03/17 10:30:45;;;;;;;15.80;14.30;;;7.60;55.70;;;;;;5136580;28;20045;-67
2021/03/17 10:33:21;;;;;;;15.45;14.05;;;7.60;56.90;;;;;;5136282;28;20038;-67
2021/03/17 10:35:53;;;;;;;14.85;13.52;;;7.60;56.00;;;;;;5135896;28;20134;-67
2021/03/17 10:38:26;;;;;;;14.85;13.45;;;7.60;55.90;;;;;;5136236;28;20069;-67
2021/03/17 10:40:58;;;;;;;15.20;13.85;;;7.60;57.40;;;;;;5135651;28;20043;-67
2021/03/17 10:43:32;;;;;;;16.55;15.05;;;7.80;57.80;;;;;;5137631;28;20066;-67
2021/03/17 10:46:03;;;;;;;16.65;15.15;;;8.30;55.80;;;;;;5133321;28;20051;-67
2021/03/17 10:48:42;;;;;;;16.30;14.82;;;8.70;56.10;;;;;;5135266;28;20046;-67
2021/03/17 10:51:13;;;;;;;15.57;14.07;;;9.10;53.20;;;;;;5136443;28;20071;-68
2021/03/17 10:53:45;;;;;;;16.02;14.25;;;9.20;54.40;;;;;;5136425;28;20075;-68
2021/03/17 10:56:16;;;;;;;16.08;14.57;;;9.30;54.30;;;;;;5135724;28;20125;-69
2021/03/17 10:58:49;;;;;;;16.27;14.77;;;9.30;51.80;;;;;;5136092;28;20054;-68
2021/03/17 11:01:22;;;;;;;16.00;14.60;;;9.40;53.40;;;;;;5134846;28;20046;-68
2021/03/17 11:04:07;;;;;;;15.52;14.13;;;9.30;52.70;;;;;;5135068;28;20058;-68
2021/03/17 11:06:39;;;;;;;14.95;13.63;;;9.10;53.60;;;;;;5135736;28;20082;-70
2021/03/17 11:09:14;;;;;;;15.75;14.35;;;8.80;52.80;;;;;;5135755;28;20046;-69
2021/03/17 11:11:50;;;;;;;15.20;13.90;;;8.30;54.30;;;;;;5136294;28;20046;-68
2021/03/17 11:14:32;;;;;;;14.75;13.45;;;7.70;56.80;;;;;;5133689;28;20026;-68
2021/03/17 11:17:08;;;;;;;13.55;12.35;;;7.20;58.60;;;;;;5135032;28;20076;-67
2021/03/17 11:19:40;;;;;;;13.50;12.30;;;6.80;59.40;;;;;;5135935;28;20038;-68
2021/03/17 11:22:12;;;;;;;11.70;10.70;;;6.40;59.90;;;;;;5134147;28;20408;-68
2021/03/17 11:24:44;;;;;;;12.55;11.40;;;6.00;61.10;;;;;;5136293;28;20042;-67
2021/03/17 11:27:27;;;;;;;12.20;11.10;;;5.70;62.90;;;;;;5134317;28;20051;-67
2021/03/17 11:29:59;;;;;;;11.48;10.48;;;5.50;62.50;;;;;;5134415;28;20534;-67
2021/03/17 11:32:31;;;;;;;10.40;9.50;;;5.40;62.90;;;;;;5135091;28;20047;-68
2021/03/17 11:35:05;;;;;;;10.32;9.52;;;5.40;61.10;;;;;;5133407;28;20086;-68
2021/03/17 11:37:36;;;;;;;10.73;9.77;;;5.50;62.00;;;;;;5134495;28;20050;-69
2021/03/17 11:40:08;;;;;;;10.63;9.73;;;5.50;62.00;;;;;;5133724;28;20039;-68
2021/03/17 11:42:39;;;;;;;11.07;9.98;;;5.40;60.40;;;;;;5136066;28;20047;-68
2021/03/17 11:45:19;;;;;;;11.48;10.48;;;5.20;62.40;;;;;;5134171;28;20101;-68
2021/03/17 11:47:51;;;;;;;11.50;10.40;;;5.20;62.30;;;;;;5134519;28;20049;-68
2021/03/17 11:50:23;;;;;;;12.10;10.90;;;5.20;61.80;;;;;;5134739;28;20539;-69
2021/03/17 11:52:55;;;;;;;13.18;11.90;;;5.20;63.90;;;;;;5135003;28;20057;-70
2021/03/17 11:55:27;;;;;;;13.70;12.50;;;5.50;62.90;;;;;;5133821;28;20110;-69
2021/03/17 11:57:59;;;;;;;13.10;11.90;;;5.90;62.40;;;;;;5134196;28;20049;-68
2021/03/17 12:00:31;;;;;;;13.40;12.10;;;6.20;61.00;;;;;;5133020;28;20126;-68
2021/03/17 12:03:05;;;;;;;14.23;12.75;;;6.40;61.30;;;;;;5133966;28;20070;-68
2021/03/17 12:05:37;;;;;;;13.70;12.40;;;6.50;61.70;;;;;;5130501;28;20054;-68
2021/03/17 12:08:10;;;;;;;15.05;12.55;;;6.70;61.80;;;;;;5135234;28;20055;-68
2021/03/17 12:10:43;;;;;;;13.82;12.40;;;7.10;60.90;;;;;;5133247;28;20599;-69
2021/03/17 12:13:14;;;;;;;14.23;13.02;;;7.30;58.30;;;;;;5134419;28;20043;-68
2021/03/17 12:15:46;;;;;;;14.70;13.20;;;7.60;59.20;;;;;;5132433;28;20075;-68
2021/03/17 12:18:18;;;;;;;14.40;13.07;;;7.70;57.30;;;;;;5134870;28;20061;-69
2021/03/17 12:20:50;;;;;;;14.57;13.15;;;7.90;58.40;;;;;;5132912;28;20047;-69
2021/03/17 12:23:22;;;;;;;13.77;12.48;;;8.00;58.10;;;;;;5131636;28;20105;-68
2021/03/17 12:25:54;;;;;;;13.68;12.48;;;8.20;55.40;;;;;;5131135;28;20043;-68
2021/03/17 12:28:25;;;;;;;14.10;12.80;;;8.20;55.40;;;;;;5129728;28;20046;-68
2021/03/17 12:30:56;;;;;;;13.32;12.18;;;8.30;53.90;;;;;;5132482;28;20067;-68
2021/03/17 12:33:28;;;;;;;14.18;12.88;;;8.20;53.30;;;;;;5132335;28;20051;-68
2021/03/17 12:36:00;;;;;;;13.98;12.60;;;8.20;53.20;;;;;;5130905;28;20714;-69
2021/03/17 12:38:32;;;;;;;13.85;12.65;;;8.10;52.30;;;;;;5134514;28;20050;-68
2021/03/17 12:41:03;;;;;;;13.82;12.50;;;8.00;50.50;;;;;;5132070;28;20568;-68
2021/03/17 12:43:35;;;;;;;13.95;12.75;;;7.90;51.60;;;;;;5131094;28;20522;-68
2021/03/17 12:46:06;;;;;;;13.32;12.02;;;7.90;51.20;;;;;;5132412;28;20070;-68
2021/03/17 12:48:38;;;;;;;12.68;11.57;;;7.90;52.60;;;;;;5135068;28;20031;-68
2021/03/17 12:51:09;;;;;;;12.65;11.45;;;7.90;51.60;;;;;;5136714;28;20404;-69
2021/03/17 12:53:41;;;;;;;12.82;11.73;;;7.90;50.90;;;;;;5136366;28;20050;-69
2021/03/17 12:56:12;;;;;;;13.32;12.23;;;7.90;50.20;;;;;;5136904;28;20097;-68
2021/03/17 12:58:44;;;;;;;12.32;11.27;;;8.00;49.80;;;;;;5135762;28;20050;-67
2021/03/17 13:01:15;;;;;;;13.20;12.00;;;7.90;49.40;;;;;;5134354;28;20838;-68
2021/03/17 13:03:47;;;;;;;13.00;11.80;;;7.70;49.20;;;;;;5136298;28;20042;-69
2021/03/17 13:06:18;;;;;;;12.70;11.45;;;7.80;50.10;;;;;;5134313;28;20132;-69
2021/03/17 13:08:50;;;;;;;13.15;12.05;;;7.80;50.30;;;;;;5133695;28;20875;-68
2021/03/17 13:11:23;;;;;;;13.38;12.15;;;7.70;49.20;;;;;;5119648;28;20061;-68
2021/03/17 13:13:55;;;;;;;12.57;11.48;;;7.70;48.50;;;;;;5135308;28;20504;-68
2021/03/17 13:16:26;;;;;;;13.27;12.07;;;7.70;49.50;;;;;;5136541;28;20050;-68
2021/03/17 13:18:58;;;;;;;12.32;11.32;;;7.70;49.60;;;;;;5136852;28;20047;-69
2021/03/17 13:21:29;;;;;;;13.27;12.07;;;7.60;49.70;;;;;;5135978;28;20500;-69